Time;durP1;ratioP1;P1;durP2;ratioP2;P2;SDS_P1;SDS_P2;PMS_P1;PMS_P2;Temp;Humidity;BMP_temperature;BMP_pressure;BME280_temperature;BME280_humidity;BME280_pressure;Samples;Min_cycle;Max_cycle;Signal;HPM_P1;HPM_P2
2024/04/10 00:00:31;;;;;;;;;;;;;;;;;;6872164;26;19923;-60
2024/04/10 00:03:39;;;;;;;;;;;;;;;;;;6872572;26;20084;-61
2024/04/10 00:06:43;;;;;;;;;;;;;;;;;;6873191;26;20105;-61
2024/04/10 00:09:48;;;;;;;;;;;;;;;;;;6864693;26;19928;-59
2024/04/10 00:12:50;;;;;;;;;;;;;;;;;;6825687;26;20013;-61
2024/04/10 00:16:00;;;;;;;;;;;;;;;;;;6826943;26;19931;-60
2024/04/10 00:19:08;;;;;;;;;;;;;;;;;;6825563;26;19924;-60
2024/04/10 00:22:10;;;;;;;;;;;;;;;;;;6824233;26;20125;-59
2024/04/10 00:25:16;;;;;;;;;;;;;;;;;;6826144;26;19924;-59
2024/04/10 00:28:19;;;;;;;;;;;;;;;;;;6826119;26;19924;-61
2024/04/10 00:31:24;;;;;;;;;;;;;;;;;;6826759;26;20110;-60
2024/04/10 00:34:29;;;;;;;;;;;;;;;;;;6824952;26;19924;-61
2024/04/10 00:37:35;;;;;;;;;;;;;;;;;;6824243;26;19923;-59
2024/04/10 00:40:37;;;;;;;;;;;;;;;;;;6825601;26;20171;-59
2024/04/10 00:43:44;;;;;;;;;;;;;;;;;;6825024;26;20207;-59
2024/04/10 00:46:47;;;;;;;;;;;;;;;;;;6826431;26;19931;-59
2024/04/10 00:49:55;;;;;;;;;;;;;;;;;;6825458;26;19947;-61
2024/04/10 00:52:58;;;;;;;;;;;;;;;;;;6825505;26;19924;-60
2024/04/10 00:56:03;;;;;;;;;;;;;;;;;;6773702;26;19924;-60
2024/04/10 00:59:10;;;;;;;;;;;;;;;;;;6779694;26;19932;-60
2024/04/10 01:02:12;;;;;;;;;;;;;;;;;;6780500;26;19928;-60
2024/04/10 01:05:20;;;;;;;;;;;;;;;;;;6780078;26;19931;-60
2024/04/10 01:08:23;;;;;;;;;;;;;;;;;;6780049;26;19931;-60
2024/04/10 01:11:28;;;;;;;;;;;;;;;;;;6812323;26;19923;-60
2024/04/10 01:14:31;;;;;;;;;;;;;;;;;;6825277;26;19931;-60
2024/04/10 01:17:37;;;;;;;;;;;;;;;;;;6825580;26;19931;-60
2024/04/10 01:20:42;;;;;;;;;;;;;;;;;;6825061;26;19935;-60
2024/04/10 01:23:50;;;;;;;;;;;;;;;;;;6808168;26;19925;-60
2024/04/10 01:26:53;;;;;;;;;;;;;;;;;;6780714;26;19924;-61
2024/04/10 01:29:58;;;;;;;;;;;;;;;;;;6783246;26;19925;-60
2024/04/10 01:33:01;;;;;;;;;;;;;;;;;;6781803;26;19925;-60
2024/04/10 01:36:07;;;;;;;;;;;;;;;;;;6784355;26;19925;-60
2024/04/10 01:39:12;;;;;;;;;;;;;;;;;;6778606;26;20180;-60
2024/04/10 01:42:17;;;;;;;;;;;;;;;;;;6784432;26;20105;-60
2024/04/10 01:45:22;;;;;;;;;;;;;;;;;;6784090;26;19931;-60
2024/04/10 01:48:25;;;;;;;;;;;;;;;;;;6783770;26;19942;-60
2024/04/10 01:51:30;;;;;;;;;;;;;;;;;;6784377;26;19924;-60
2024/04/10 01:54:36;;;;;;;;;;;;;;;;;;6793911;26;19947;-60
2024/04/10 01:57:41;;;;;;;;;;;;;;;;;;6829425;26;20972;-60
2024/04/10 02:00:43;;;;;;;;;;;;;;;;;;6828287;26;20112;-60
2024/04/10 02:03:49;;;;;;;;;;;;;;;;;;6827527;26;19924;-60
2024/04/10 02:06:51;;;;;;;;;;;;;;;;;;6829227;26;19923;-60
2024/04/10 02:09:59;;;;;;;;;;;;;;;;;;6836241;26;19987;-60
2024/04/10 02:13:02;;;;;;;;;;;;;;;;;;6873846;26;20121;-60
2024/04/10 02:16:07;;;;;;;;;;;;;;;;;;6873474;26;19934;-60
2024/04/10 02:19:13;;;;;;;;;;;;;;;;;;6874216;26;20125;-61
2024/04/10 02:22:15;;;;;;;;;;;;;;;;;;6874861;26;20054;-60
2024/04/10 02:25:23;;;;;;;;;;;;;;;;;;6833221;26;20013;-60
2024/04/10 02:28:26;;;;;;;;;;;;;;;;;;6828288;26;19924;-60
2024/04/10 02:31:31;;;;;;;;;;;;;;;;;;6828469;26;19923;-60
2024/04/10 02:34:34;;;;;;;;;;;;;;;;;;6794818;26;19933;-60
2024/04/10 02:37:39;;;;;;;;;;;;;;;;;;6828392;26;20013;-60
2024/04/10 02:40:44;;;;;;;;;;;;;;;;;;6827584;26;19931;-60
2024/04/10 02:43:50;;;;;;;;;;;;;;;;;;6827762;26;19931;-60
2024/04/10 02:46:56;;;;;;;;;;;;;;;;;;6797627;26;19931;-60
2024/04/10 02:49:59;;;;;;;;;;;;;;;;;;6828014;26;19924;-60
2024/04/10 02:53:04;;;;;;;;;;;;;;;;;;6827359;26;20118;-60
2024/04/10 02:56:09;;;;;;;;;;;;;;;;;;6828479;25;19924;-60
2024/04/10 02:59:15;;;;;;;;;;;;;;;;;;6828284;26;19924;-60
2024/04/10 03:02:17;;;;;;;;;;;;;;;;;;6850670;26;20141;-61
2024/04/10 03:05:23;;;;;;;;;;;;;;;;;;6838919;26;20211;-60
2024/04/10 03:08:25;;;;;;;;;;;;;;;;;;6827865;26;20071;-60
2024/04/10 03:11:33;;;;;;;;;;;;;;;;;;6853731;26;19931;-60
2024/04/10 03:14:39;;;;;;;;;;;;;;;;;;6873406;26;20021;-60
2024/04/10 03:17:46;;;;;;;;;;;;;;;;;;6873546;26;19950;-60
2024/04/10 03:20:49;;;;;;;;;;;;;;;;;;6833386;26;19931;-60
2024/04/10 03:23:54;;;;;;;;;;;;;;;;;;6846427;26;19924;-60
2024/04/10 03:26:59;;;;;;;;;;;;;;;;;;6865692;26;20008;-60
2024/04/10 03:30:05;;;;;;;;;;;;;;;;;;6868122;26;19923;-60
2024/04/10 03:33:09;;;;;;;;;;;;;;;;;;6873075;26;20153;-60
2024/04/10 03:36:15;;;;;;;;;;;;;;;;;;6858324;26;20315;-60
2024/04/10 03:39:18;;;;;;;;;;;;;;;;;;6826281;26;19931;-60
2024/04/10 03:42:26;;;;;;;;;;;;;;;;;;6827560;26;20015;-60
2024/04/10 03:45:33;;;;;;;;;;;;;;;;;;6827752;25;20109;-60
2024/04/10 03:48:38;;;;;;;;;;;;;;;;;;6823149;26;19924;-60
2024/04/10 03:51:45;;;;;;;;;;;;;;;;;;6827443;26;20026;-60
2024/04/10 03:54:48;;;;;;;;;;;;;;;;;;6826434;26;19931;-60
2024/04/10 03:57:56;;;;;;;;;;;;;;;;;;6826742;26;19928;-60
2024/04/10 04:01:02;;;;;;;;;;;;;;;;;;6827342;26;20122;-60
2024/04/10 04:04:07;;;;;;;;;;;;;;;;;;6826066;26;19924;-60
2024/04/10 04:07:10;;;;;;;;;;;;;;;;;;6826394;26;20109;-61
2024/04/10 04:10:16;;;;;;;;;;;;;;;;;;6839697;26;19947;-61
2024/04/10 04:13:24;;;;;;;;;;;;;;;;;;6872806;26;19946;-60
2024/04/10 04:16:26;;;;;;;;;;;;;;;;;;6873295;26;19924;-61
2024/04/10 04:19:31;;;;;;;;;;;;;;;;;;6839976;26;19980;-60
2024/04/10 04:22:34;;;;;;;;;;;;;;;;;;6870929;26;19923;-60
2024/04/10 04:25:39;;;;;;;;;;;;;;;;;;6825833;26;19924;-61
2024/04/10 04:28:48;;;;;;;;;;;;;;;;;;6825594;26;19947;-60
2024/04/10 04:31:51;;;;;;;;;;;;;;;;;;6825494;26;19924;-60
2024/04/10 04:34:56;;;;;;;;;;;;;;;;;;6827116;26;19930;-60
2024/04/10 04:37:59;;;;;;;;;;;;;;;;;;6826712;26;19924;-60
2024/04/10 04:41:06;;;;;;;;;;;;;;;;;;6827390;26;19924;-60
2024/04/10 04:44:14;;;;;;;;;;;;;;;;;;6826110;26;20021;-62
2024/04/10 04:47:17;;;;;;;;;;;;;;;;;;6826249;26;19931;-61
2024/04/10 04:50:22;;;;;;;;;;;;;;;;;;6826064;26;19931;-59
2024/04/10 04:53:28;;;;;;;;;;;;;;;;;;6825492;26;20005;-61
2024/04/10 04:56:31;;;;;;;;;;;;;;;;;;6785934;26;19925;-61
2024/04/10 04:59:39;;;;;;;;;;;;;;;;;;6779904;26;19932;-61
2024/04/10 05:02:44;;;;;;;;;;;;;;;;;;6780252;26;19945;-61
2024/04/10 05:05:47;;;;;;;;;;;;;;;;;;6780974;26;20113;-60
2024/04/10 05:08:52;;;;;;;;;;;;;;;;;;6780161;26;19924;-59
2024/04/10 05:11:57;;;;;;;;;;;;;;;;;;6819650;26;19924;-60
2024/04/10 05:15:10;;;;;;;;;;;;;;;;;;6825396;26;19928;-60
2024/04/10 05:18:15;;;;;;;;;;;;;;;;;;6824645;26;19924;-60
2024/04/10 05:21:21;;;;;;;;;;;;;;;;;;6826159;26;20665;-60
2024/04/10 05:24:23;;;;;;;;;;;;;;;;;;6798709;26;19948;-60
2024/04/10 05:27:30;;;;;;;;;;;;;;;;;;6779442;26;19951;-61
2024/04/10 05:30:36;;;;;;;;;;;;;;;;;;6779655;26;19932;-60
2024/04/10 05:33:41;;;;;;;;;;;;;;;;;;6779272;26;20299;-61
2024/04/10 05:36:44;;;;;;;;;;;;;;;;;;6779459;26;19925;-61
2024/04/10 05:39:50;;;;;;;;;;;;;;;;;;6777134;26;19932;-61
2024/04/10 05:42:53;;;;;;;;;;;;;;;;;;6778715;26;20004;-60
2024/04/10 05:46:01;;;;;;;;;;;;;;;;;;6779309;26;20106;-60
2024/04/10 05:49:05;;;;;;;;;;;;;;;;;;6778755;26;19924;-61
2024/04/10 05:52:10;;;;;;;;;;;;;;;;;;6778424;26;20022;-60
2024/04/10 05:55:13;;;;;;;;;;;;;;;;;;6798324;26;19931;-61
2024/04/10 05:58:18;;;;;;;;;;;;;;;;;;6824400;26;19924;-60
2024/04/10 06:01:26;;;;;;;;;;;;;;;;;;6824768;26;19923;-62
2024/04/10 06:04:29;;;;;;;;;;;;;;;;;;6824034;26;19941;-62
2024/04/10 06:07:36;;;;;;;;;;;;;;;;;;6824349;26;19923;-60
2024/04/10 06:10:38;;;;;;;;;;;;;;;;;;6845958;26;20282;-61
2024/04/10 06:13:46;;;;;;;;;;;;;;;;;;6874209;26;19924;-60
2024/04/10 06:16:51;;;;;;;;;;;;;;;;;;6875084;26;20456;-60
2024/04/10 06:19:57;;;;;;;;;;;;;;;;;;6874259;26;19930;-59
2024/04/10 06:23:02;;;;;;;;;;;;;;;;;;6868712;26;20113;-61
2024/04/10 06:26:07;;;;;;;;;;;;;;;;;;6826160;26;19931;-61
2024/04/10 06:29:10;;;;;;;;;;;;;;;;;;6828517;26;19924;-61
2024/04/10 06:32:18;;;;;;;;;;;;;;;;;;6829686;26;19931;-61
2024/04/10 06:35:24;;;;;;;;;;;;;;;;;;6826968;26;20016;-61
2024/04/10 06:38:26;;;;;;;;;;;;;;;;;;6823358;26;19936;-60
2024/04/10 06:41:32;;;;;;;;;;;;;;;;;;6829500;26;19931;-60
2024/04/10 06:44:35;;;;;;;;;;;;;;;;;;6828197;26;20129;-60
2024/04/10 06:47:44;;;;;;;;;;;;;;;;;;6827735;26;20069;-60
2024/04/10 06:50:46;;;;;;;;;;;;;;;;;;6828983;26;19924;-60
2024/04/10 06:53:51;;;;;;;;;;;;;;;;;;6847071;26;19931;-61
2024/04/10 06:56:57;;;;;;;;;;;;;;;;;;6816133;26;19923;-61
2024/04/10 07:00:02;;;;;;;;;;;;;;;;;;6827340;26;19935;-61
2024/04/10 07:03:10;;;;;;;;;;;;;;;;;;6817975;26;20121;-60
2024/04/10 07:06:17;;;;;;;;;;;;;;;;;;6826645;26;19931;-60
2024/04/10 07:09:23;;;;;;;;;;;;;;;;;;6825898;26;20149;-61
2024/04/10 07:12:25;;;;;;;;;;;;;;;;;;6827331;26;19983;-62
2024/04/10 07:15:32;;;;;;;;;;;;;;;;;;6826988;26;19924;-61
2024/04/10 07:18:40;;;;;;;;;;;;;;;;;;6827282;26;19931;-61
2024/04/10 07:21:46;;;;;;;;;;;;;;;;;;6826301;26;19924;-60
2024/04/10 07:24:49;;;;;;;;;;;;;;;;;;6853791;26;19927;-60
2024/04/10 07:27:54;;;;;;;;;;;;;;;;;;6868762;26;20125;-60
2024/04/10 07:30:57;;;;;;;;;;;;;;;;;;6874939;26;19923;-60
2024/04/10 07:34:06;;;;;;;;;;;;;;;;;;6871803;26;19924;-60
2024/04/10 07:37:09;;;;;;;;;;;;;;;;;;6872028;26;19923;-60
2024/04/10 07:40:15;;;;;;;;;;;;;;;;;;6873344;26;19923;-60
2024/04/10 07:43:19;;;;;;;;;;;;;;;;;;6873992;26;19928;-60
2024/04/10 07:46:24;;;;;;;;;;;;;;;;;;6873846;26;19923;-59
2024/04/10 07:49:30;;;;;;;;;;;;;;;;;;6874469;26;19931;-59
2024/04/10 07:52:36;;;;;;;;;;;;;;;;;;6817871;26;20105;-60
2024/04/10 07:55:38;;;;;;;;;;;;;;;;;;6857638;26;19928;-60
2024/04/10 07:58:47;;;;;;;;;;;;;;;;;;6874089;26;20010;-59
2024/04/10 08:01:51;;;;;;;;;;;;;;;;;;6872251;26;19924;-59
2024/04/10 08:04:59;;;;;;;;;;;;;;;;;;6873544;26;19928;-60
2024/04/10 08:08:03;;;;;;;;;;;;;;;;;;6838387;26;19934;-60
2024/04/10 08:11:09;;;;;;;;;;;;;;;;;;6847159;26;19924;-62
2024/04/10 08:14:16;;;;;;;;;;;;;;;;;;6828169;26;19935;-61
2024/04/10 08:17:18;;;;;;;;;;;;;;;;;;6846592;26;19924;-61
2024/04/10 08:20:28;;;;;;;;;;;;;;;;;;6826414;26;19923;-61
2024/04/10 08:23:34;;;;;;;;;;;;;;;;;;6837682;26;19923;-60
2024/04/10 08:26:40;;;;;;;;;;;;;;;;;;6865421;26;19930;-60
2024/04/10 08:29:46;;;;;;;;;;;;;;;;;;6872078;26;19923;-60
2024/04/10 08:32:52;;;;;;;;;;;;;;;;;;6868964;26;20698;-61
2024/04/10 08:35:59;;;;;;;;;;;;;;;;;;6871521;26;20012;-61
2024/04/10 08:39:05;;;;;;;;;;;;;;;;;;6872043;26;19931;-59
2024/04/10 08:42:07;;;;;;;;;;;;;;;;;;6872438;26;19924;-60
2024/04/10 08:45:13;;;;;;;;;;;;;;;;;;6869361;26;19931;-60
2024/04/10 08:48:18;;;;;;;;;;;;;;;;;;6867791;26;20101;-60
2024/04/10 08:51:26;;;;;;;;;;;;;;;;;;6873897;26;20025;-60
2024/04/10 08:54:29;;;;;;;;;;;;;;;;;;6861710;26;19924;-60
2024/04/10 08:57:34;;;;;;;;;;;;;;;;;;6825133;26;20118;-62
2024/04/10 09:00:39;;;;;;;;;;;;;;;;;;6826509;26;20520;-60
2024/04/10 09:03:44;;;;;;;;;;;;;;;;;;6825350;26;19931;-60
2024/04/10 09:06:49;;;;;;;;;;;;;;;;;;6826056;26;19924;-59
2024/04/10 09:09:55;;;;;;;;;;;;;;;;;;6818054;26;19932;-61
2024/04/10 09:13:04;;;;;;;;;;;;;;;;;;6781043;26;19932;-59
2024/04/10 09:16:11;;;;;;;;;;;;;;;;;;6748922;26;19928;-61
2024/04/10 09:19:15;;;;;;;;;;;;;;;;;;6776437;26;19924;-59
2024/04/10 09:22:23;;;;;;;;;;;;;;;;;;6774971;26;20114;-61
2024/04/10 09:25:26;;;;;;;;;;;;;;;;;;6779840;26;20288;-60
2024/04/10 09:28:32;;;;;;;;;;;;;;;;;;6776580;26;20158;-60
2024/04/10 09:31:34;;;;;;;;;;;;;;;;;;6781383;26;20004;-60
2024/04/10 09:34:43;;;;;;;;;;;;;;;;;;6774119;26;20095;-61
2024/04/10 09:37:48;;;;;;;;;;;;;;;;;;6778215;26;20110;-61
2024/04/10 09:40:55;;;;;;;;;;;;;;;;;;6771791;26;20122;-61
2024/04/10 09:43:58;;;;;;;;;;;;;;;;;;6780943;26;19924;-61
2024/04/10 09:47:04;;;;;;;;;;;;;;;;;;6781386;26;19925;-61
2024/04/10 09:50:08;;;;;;;;;;;;;;;;;;6753717;26;19925;-62
2024/04/10 09:53:19;;;;;;;;;;;;;;;;;;6809120;26;19924;-60
2024/04/10 09:56:24;;;;;;;;;;;;;;;;;;6822669;26;19989;-61
2024/04/10 09:59:36;;;;;;;;;;;;;;;;;;6830623;25;20121;-60
2024/04/10 10:02:43;;;;;;;;;;;;;;;;;;6827863;26;19990;-61
2024/04/10 10:05:47;;;;;;;;;;;;;;;;;;6800204;25;19995;-61
2024/04/10 10:08:56;;;;;;;;;;;;;;;;;;6830476;26;19923;-60
2024/04/10 10:11:59;;;;;;;;;;;;;;;;;;6870056;26;19923;-60
2024/04/10 10:15:11;;;;;;;;;;;;;;;;;;6874706;26;20019;-61
2024/04/10 10:18:22;;;;;;;;;;;;;;;;;;6874526;26;20291;-61
2024/04/10 10:21:27;;;;;;;;;;;;;;;;;;6844349;26;19923;-61
2024/04/10 10:24:33;;;;;;;;;;;;;;;;;;6874383;26;19999;-61
2024/04/10 10:27:38;;;;;;;;;;;;;;;;;;6872222;26;19923;-62
2024/04/10 10:30:44;;;;;;;;;;;;;;;;;;6873379;26;19930;-59
2024/04/10 10:33:51;;;;;;;;;;;;;;;;;;6875800;26;19923;-61
2024/04/10 10:36:54;;;;;;;;;;;;;;;;;;6875310;26;19931;-61
2024/04/10 10:40:02;;;;;;;;;;;;;;;;;;6874288;26;20128;-61
2024/04/10 10:43:07;;;;;;;;;;;;;;;;;;6874134;26;19923;-60
2024/04/10 10:46:13;;;;;;;;;;;;;;;;;;6873890;26;19962;-61
2024/04/10 10:49:16;;;;;;;;;;;;;;;;;;6873752;26;19930;-60
2024/04/10 10:52:21;;;;;;;;;;;;;;;;;;6874550;26;20027;-60
2024/04/10 10:55:27;;;;;;;;;;;;;;;;;;6871830;26;19923;-60
2024/04/10 10:58:32;;;;;;;;;;;;;;;;;;6864957;26;19940;-60
2024/04/10 11:01:35;;;;;;;;;;;;;;;;;;6842258;26;19950;-60
2024/04/10 11:04:40;;;;;;;;;;;;;;;;;;6840068;26;19931;-61
2024/04/10 11:07:43;;;;;;;;;;;;;;;;;;6874308;26;19930;-61
2024/04/10 11:10:51;;;;;;;;;;;;;;;;;;6853380;26;19931;-61
2024/04/10 11:13:54;;;;;;;;;;;;;;;;;;6828296;26;19924;-61
2024/04/10 11:16:59;;;;;;;;;;;;;;;;;;6829063;26;19931;-62
2024/04/10 11:20:08;;;;;;;;;;;;;;;;;;6827860;26;19931;-61
2024/04/10 11:23:11;;;;;;;;;;;;;;;;;;6836021;26;19923;-60
2024/04/10 11:26:19;;;;;;;;;;;;;;;;;;6872299;26;20109;-61
2024/04/10 11:29:22;;;;;;;;;;;;;;;;;;6872606;26;19930;-61
2024/04/10 11:32:27;;;;;;;;;;;;;;;;;;6873746;26;19935;-61
2024/04/10 11:35:31;;;;;;;;;;;;;;;;;;6874090;26;19924;-60
2024/04/10 11:38:37;;;;;;;;;;;;;;;;;;6872794;26;20017;-60
2024/04/10 11:41:46;;;;;;;;;;;;;;;;;;6874473;26;19930;-60
2024/04/10 11:44:48;;;;;;;;;;;;;;;;;;6873311;26;19923;-60
2024/04/10 11:47:55;;;;;;;;;;;;;;;;;;6873021;26;19923;-60
2024/04/10 11:51:01;;;;;;;;;;;;;;;;;;6873944;26;19923;-60
2024/04/10 11:54:03;;;;;;;;;;;;;;;;;;6873835;26;19923;-60
2024/04/10 11:57:12;;;;;;;;;;;;;;;;;;6875614;26;19950;-60
2024/04/10 12:00:15;;;;;;;;;;;;;;;;;;6840235;26;19957;-60
2024/04/10 12:03:21;;;;;;;;;;;;;;;;;;6872553;26;19930;-60
2024/04/10 12:06:24;;;;;;;;;;;;;;;;;;6872907;26;19927;-60
2024/04/10 12:09:29;;;;;;;;;;;;;;;;;;6869553;26;19924;-60
2024/04/10 12:12:34;;;;;;;;;;;;;;;;;;6827106;26;20022;-60
2024/04/10 12:15:40;;;;;;;;;;;;;;;;;;6791702;26;19955;-60
2024/04/10 12:18:42;;;;;;;;;;;;;;;;;;6820008;26;20217;-61
2024/04/10 12:21:48;;;;;;;;;;;;;;;;;;6826960;26;19924;-61
2024/04/10 12:24:51;;;;;;;;;;;;;;;;;;6846671;26;19947;-60
2024/04/10 12:27:59;;;;;;;;;;;;;;;;;;6866975;26;20012;-60
2024/04/10 12:31:04;;;;;;;;;;;;;;;;;;6827328;26;19924;-60
2024/04/10 12:34:08;;;;;;;;;;;;;;;;;;6826465;26;19924;-60
2024/04/10 12:40:34;;;;;;;;;;;;;;;;;;6826836;26;19936;-60
2024/04/10 12:43:42;;;;;;;;;;;;;;;;;;6826666;26;19924;-60
2024/04/10 12:46:50;;;;;;;;;;;;;;;;;;6826755;26;19931;-60
2024/04/10 12:49:52;;;;;;;;;;;;;;;;;;6822072;26;19923;-60
2024/04/10 12:52:58;;;;;;;;;;;;;;;;;;6826074;26;19931;-60
2024/04/10 12:56:01;;;;;;;;;;;;;;;;;;6826521;26;20026;-60
2024/04/10 12:59:09;;;;;;;;;;;;;;;;;;6826731;26;19924;-60
2024/04/10 13:02:12;;;;;;;;;;;;;;;;;;6827162;26;20012;-61
2024/04/10 13:05:17;;;;;;;;;;;;;;;;;;6823318;26;19924;-60
2024/04/10 13:08:23;;;;;;;;;;;;;;;;;;6825951;26;19924;-60
2024/04/10 13:11:26;;;;;;;;;;;;;;;;;;6831602;26;19931;-60
2024/04/10 13:14:34;;;;;;;;;;;;;;;;;;6852790;26;20117;-60
2024/04/10 13:17:39;;;;;;;;;;;;;;;;;;6871440;26;19924;-60
2024/04/10 13:20:42;;;;;;;;;;;;;;;;;;6870874;26;19923;-60
2024/04/10 13:23:47;;;;;;;;;;;;;;;;;;6853308;26;19923;-59
2024/04/10 13:26:50;;;;;;;;;;;;;;;;;;6825704;26;19935;-59
2024/04/10 13:29:58;;;;;;;;;;;;;;;;;;6825875;26;20021;-60
2024/04/10 13:33:01;;;;;;;;;;;;;;;;;;6823229;26;19924;-59
2024/04/10 13:36:07;;;;;;;;;;;;;;;;;;6818905;26;20016;-60
2024/04/10 13:39:11;;;;;;;;;;;;;;;;;;6824964;26;19924;-62
2024/04/10 13:42:16;;;;;;;;;;;;;;;;;;6825537;26;19937;-61
2024/04/10 13:45:21;;;;;;;;;;;;;;;;;;6824417;26;20349;-61
2024/04/10 13:48:27;;;;;;;;;;;;;;;;;;6822318;26;19924;-61
2024/04/10 13:51:29;;;;;;;;;;;;;;;;;;6825312;26;19924;-60
2024/04/10 13:54:35;;;;;;;;;;;;;;;;;;6824516;26;19954;-60
2024/04/10 13:57:38;;;;;;;;;;;;;;;;;;6809798;25;19931;-61
2024/04/10 14:00:46;;;;;;;;;;;;;;;;;;6824086;26;20125;-60
2024/04/10 14:03:51;;;;;;;;;;;;;;;;;;6824255;26;19924;-60
2024/04/10 14:06:57;;;;;;;;;;;;;;;;;;6824845;26;19923;-60
2024/04/10 14:10:00;;;;;;;;;;;;;;;;;;6835098;25;20113;-61
2024/04/10 14:13:07;;;;;;;;;;;;;;;;;;6871066;26;20319;-61
2024/04/10 14:16:12;;;;;;;;;;;;;;;;;;6869456;26;19947;-61
2024/04/10 14:19:17;;;;;;;;;;;;;;;;;;6868400;26;19923;-61
2024/04/10 14:22:20;;;;;;;;;;;;;;;;;;6870305;26;19930;-60
2024/04/10 14:25:25;;;;;;;;;;;;;;;;;;6870115;25;19924;-60
2024/04/10 14:28:28;;;;;;;;;;;;;;;;;;6827885;26;19931;-60
2024/04/10 14:31:36;;;;;;;;;;;;;;;;;;6872553;26;19923;-60
2024/04/10 14:34:39;;;;;;;;;;;;;;;;;;6874155;26;19931;-59
2024/04/10 14:37:44;;;;;;;;;;;;;;;;;;6874804;26;19923;-61
2024/04/10 14:40:47;;;;;;;;;;;;;;;;;;6875125;26;19935;-60
2024/04/10 14:43:52;;;;;;;;;;;;;;;;;;6874896;26;19930;-60
2024/04/10 14:46:57;;;;;;;;;;;;;;;;;;6875286;26;19924;-60
2024/04/10 14:50:03;;;;;;;;;;;;;;;;;;6874423;26;19930;-61
2024/04/10 14:53:06;;;;;;;;;;;;;;;;;;6873600;26;19923;-61
2024/04/10 14:56:13;;;;;;;;;;;;;;;;;;6875062;26;19923;-61
2024/04/10 14:59:16;;;;;;;;;;;;;;;;;;6874700;26;20010;-61
2024/04/10 15:02:24;;;;;;;;;;;;;;;;;;6875713;26;20140;-61
2024/04/10 15:05:26;;;;;;;;;;;;;;;;;;6842913;26;20001;-60
2024/04/10 15:08:32;;;;;;;;;;;;;;;;;;6874267;26;20024;-62
2024/04/10 15:11:34;;;;;;;;;;;;;;;;;;6841180;26;19924;-61
2024/04/10 15:14:40;;;;;;;;;;;;;;;;;;6843597;26;19924;-61
2024/04/10 15:17:45;;;;;;;;;;;;;;;;;;6828558;26;19988;-61
2024/04/10 15:20:51;;;;;;;;;;;;;;;;;;6826161;26;19924;-61
2024/04/10 15:23:53;;;;;;;;;;;;;;;;;;6844226;26;19931;-61
2024/04/10 15:26:59;;;;;;;;;;;;;;;;;;6874422;26;19927;-61
2024/04/10 15:30:02;;;;;;;;;;;;;;;;;;6873866;26;19923;-60
2024/04/10 15:33:10;;;;;;;;;;;;;;;;;;6872201;26;19923;-60
2024/04/10 15:36:13;;;;;;;;;;;;;;;;;;6873376;26;19947;-63
2024/04/10 15:39:20;;;;;;;;;;;;;;;;;;6839173;26;19923;-60
2024/04/10 15:42:23;;;;;;;;;;;;;;;;;;6871979;26;19923;-62
2024/04/10 15:45:29;;;;;;;;;;;;;;;;;;6872981;26;20004;-60
2024/04/10 15:48:34;;;;;;;;;;;;;;;;;;6871301;26;19923;-61
2024/04/10 15:51:40;;;;;;;;;;;;;;;;;;6874192;26;20101;-60
2024/04/10 15:54:43;;;;;;;;;;;;;;;;;;6829073;26;20008;-62
2024/04/10 15:57:48;;;;;;;;;;;;;;;;;;6866351;26;19923;-61
2024/04/10 16:00:58;;;;;;;;;;;;;;;;;;6872762;26;19931;-61
2024/04/10 16:04:07;;;;;;;;;;;;;;;;;;6871678;26;20035;-61
2024/04/10 16:07:10;;;;;;;;;;;;;;;;;;6866326;26;19931;-60
2024/04/10 16:10:15;;;;;;;;;;;;;;;;;;6859244;26;19933;-61
2024/04/10 16:13:18;;;;;;;;;;;;;;;;;;6823863;26;19931;-61
2024/04/10 16:16:23;;;;;;;;;;;;;;;;;;6827833;26;19926;-60
2024/04/10 16:19:29;;;;;;;;;;;;;;;;;;6826372;26;19924;-62
2024/04/10 16:22:34;;;;;;;;;;;;;;;;;;6826038;26;19924;-61
2024/04/10 16:25:37;;;;;;;;;;;;;;;;;;6872164;26;19923;-60
2024/04/10 16:28:42;;;;;;;;;;;;;;;;;;6871984;26;19923;-61
2024/04/10 16:31:47;;;;;;;;;;;;;;;;;;6873946;26;20010;-60
2024/04/10 16:34:53;;;;;;;;;;;;;;;;;;6871630;26;20002;-61
2024/04/10 16:37:58;;;;;;;;;;;;;;;;;;6871294;26;19947;-60
2024/04/10 16:41:01;;;;;;;;;;;;;;;;;;6872002;26;19924;-60
2024/04/10 16:44:06;;;;;;;;;;;;;;;;;;6871025;26;20132;-60
2024/04/10 16:47:09;;;;;;;;;;;;;;;;;;6871634;26;19931;-61
2024/04/10 16:50:16;;;;;;;;;;;;;;;;;;6871001;26;19923;-61
2024/04/10 16:53:20;;;;;;;;;;;;;;;;;;6871716;26;19924;-61
2024/04/10 16:56:26;;;;;;;;;;;;;;;;;;6868629;26;19930;-61
2024/04/10 16:59:28;;;;;;;;;;;;;;;;;;6872176;26;19930;-59
2024/04/10 17:02:33;;;;;;;;;;;;;;;;;;6870895;26;19930;-59
2024/04/10 17:05:39;;;;;;;;;;;;;;;;;;6872100;26;20113;-60
2024/04/10 17:08:45;;;;;;;;;;;;;;;;;;6871161;26;19954;-62
2024/04/10 17:11:47;;;;;;;;;;;;;;;;;;6834446;26;19924;-61
2024/04/10 17:14:55;;;;;;;;;;;;;;;;;;6825139;26;19923;-61
2024/04/10 17:24:46;;;;;;;;;;;;;;;;;;6857674;26;19924;-60
2024/04/10 17:27:51;;;;;;;;;;;;;;;;;;6871102;26;19934;-61
2024/04/10 17:30:54;;;;;;;;;;;;;;;;;;6871057;26;19923;-60
2024/04/10 17:34:00;;;;;;;;;;;;;;;;;;6866925;26;19927;-60
2024/04/10 17:37:06;;;;;;;;;;;;;;;;;;6871597;26;19924;-60
2024/04/10 17:40:12;;;;;;;;;;;;;;;;;;6828863;26;20141;-59
2024/04/10 17:43:15;;;;;;;;;;;;;;;;;;6807940;26;20124;-60
2024/04/10 17:46:20;;;;;;;;;;;;;;;;;;6871262;26;19927;-60
2024/04/10 17:49:25;;;;;;;;;;;;;;;;;;6869466;26;19935;-60
2024/04/10 17:52:30;;;;;;;;;;;;;;;;;;6870660;26;19924;-61
2024/04/10 17:55:38;;;;;;;;;;;;;;;;;;6859017;26;20186;-60
2024/04/10 17:58:41;;;;;;;;;;;;;;;;;;6870009;26;19923;-61
2024/04/10 18:01:47;;;;;;;;;;;;;;;;;;6828216;26;19930;-60
2024/04/10 18:04:49;;;;;;;;;;;;;;;;;;6869975;26;19930;-60
2024/04/10 18:07:57;;;;;;;;;;;;;;;;;;6873848;26;19924;-60
2024/04/10 18:11:03;;;;;;;;;;;;;;;;;;6849621;26;19924;-60
2024/04/10 18:14:10;;;;;;;;;;;;;;;;;;6829346;26;20000;-59
2024/04/10 18:17:13;;;;;;;;;;;;;;;;;;6830103;26;19931;-59
2024/04/10 18:20:19;;;;;;;;;;;;;;;;;;6825977;26;20118;-60
2024/04/10 18:23:24;;;;;;;;;;;;;;;;;;6809123;26;19947;-61
2024/04/10 18:26:32;;;;;;;;;;;;;;;;;;6875304;26;20016;-60
2024/04/10 18:29:35;;;;;;;;;;;;;;;;;;6864634;26;20112;-60
2024/04/10 18:32:40;;;;;;;;;;;;;;;;;;6874179;26;20016;-63
2024/04/10 18:35:43;;;;;;;;;;;;;;;;;;6875568;26;19923;-61
2024/04/10 18:38:51;;;;;;;;;;;;;;;;;;6872300;26;20256;-60
2024/04/10 18:41:54;;;;;;;;;;;;;;;;;;6875006;26;19924;-60
2024/04/10 18:44:59;;;;;;;;;;;;;;;;;;6873349;26;19924;-60
2024/04/10 18:48:03;;;;;;;;;;;;;;;;;;6852461;26;20647;-60
2024/04/10 18:51:12;;;;;;;;;;;;;;;;;;6846009;26;19923;-61
2024/04/10 18:54:17;;;;;;;;;;;;;;;;;;6874457;26;20799;-60
2024/04/10 18:57:23;;;;;;;;;;;;;;;;;;6874182;26;19935;-60
2024/04/10 19:00:25;;;;;;;;;;;;;;;;;;6872990;26;19924;-60
2024/04/10 19:03:31;;;;;;;;;;;;;;;;;;6873054;26;19931;-61
2024/04/10 19:06:34;;;;;;;;;;;;;;;;;;6873403;26;19934;-60
2024/04/10 19:09:42;;;;;;;;;;;;;;;;;;6869994;26;19923;-62
2024/04/10 19:12:47;;;;;;;;;;;;;;;;;;6828172;26;19931;-62
2024/04/10 19:15:53;;;;;;;;;;;;;;;;;;6829094;26;19924;-62
2024/04/10 19:18:58;;;;;;;;;;;;;;;;;;6827106;26;19924;-62
2024/04/10 19:22:01;;;;;;;;;;;;;;;;;;6828580;26;20113;-60
2024/04/10 19:25:09;;;;;;;;;;;;;;;;;;6864390;26;19924;-60
2024/04/10 19:28:12;;;;;;;;;;;;;;;;;;6872741;26;20255;-60
2024/04/10 19:31:17;;;;;;;;;;;;;;;;;;6874198;26;19923;-60
2024/04/10 19:34:20;;;;;;;;;;;;;;;;;;6871656;26;19931;-60
2024/04/10 19:37:25;;;;;;;;;;;;;;;;;;6841676;26;19923;-61
2024/04/10 19:40:33;;;;;;;;;;;;;;;;;;6873926;26;19967;-61
2024/04/10 19:43:39;;;;;;;;;;;;;;;;;;6831721;26;20181;-61
2024/04/10 19:46:44;;;;;;;;;;;;;;;;;;6874147;26;19930;-60
2024/04/10 19:49:48;;;;;;;;;;;;;;;;;;6873766;26;19923;-61
2024/04/10 19:52:53;;;;;;;;;;;;;;;;;;6871043;26;20139;-61
2024/04/10 19:56:00;;;;;;;;;;;;;;;;;;6873883;26;20145;-61
2024/04/10 19:59:09;;;;;;;;;;;;;;;;;;6873466;26;19923;-61
2024/04/10 20:02:11;;;;;;;;;;;;;;;;;;6873373;26;19923;-61
2024/04/10 20:05:18;;;;;;;;;;;;;;;;;;6873054;26;19927;-61
2024/04/10 20:08:21;;;;;;;;;;;;;;;;;;6872860;26;19931;-61
2024/04/10 20:11:29;;;;;;;;;;;;;;;;;;6873478;26;19931;-61
2024/04/10 20:14:32;;;;;;;;;;;;;;;;;;6872408;26;20464;-60
2024/04/10 20:17:38;;;;;;;;;;;;;;;;;;6871844;26;20126;-60
2024/04/10 20:20:41;;;;;;;;;;;;;;;;;;6873043;26;20113;-59
2024/04/10 20:23:46;;;;;;;;;;;;;;;;;;6856328;26;20191;-59
2024/04/10 20:26:54;;;;;;;;;;;;;;;;;;6827030;26;19931;-59
2024/04/10 20:29:58;;;;;;;;;;;;;;;;;;6825700;26;19923;-61
2024/04/10 20:33:04;;;;;;;;;;;;;;;;;;6826506;26;19924;-60
2024/04/10 20:36:09;;;;;;;;;;;;;;;;;;6826912;26;19924;-59
2024/04/10 20:39:12;;;;;;;;;;;;;;;;;;6826521;26;19931;-60
2024/04/10 20:42:21;;;;;;;;;;;;;;;;;;6825889;26;20109;-60
2024/04/10 20:45:24;;;;;;;;;;;;;;;;;;6827693;26;19924;-60
2024/04/10 20:48:30;;;;;;;;;;;;;;;;;;6826825;26;19982;-60
2024/04/10 20:51:33;;;;;;;;;;;;;;;;;;6825131;26;19931;-60
2024/04/10 20:54:39;;;;;;;;;;;;;;;;;;6834073;25;19924;-60
2024/04/10 20:57:44;;;;;;;;;;;;;;;;;;6750444;26;19925;-60
2024/04/10 21:00:49;;;;;;;;;;;;;;;;;;6780842;26;19931;-60
2024/04/10 22:13:30;;;;;;;;;;;;;;;;;;6835160;25;19932;-92
2024/04/10 22:23:58;;;;;;;;;;;;;;;;;;6846823;25;19924;-91
2024/04/10 22:26:48;;;;;;;;;;;;;;;;;;6814745;26;19924;-92
2024/04/10 22:29:59;;;;;;;;;;;;;;;;;;6784496;26;19921;-92